createdAt,value
2018-02-08T00:05:31.511Z,29.3
2018-02-08T00:20:31.550Z,29.2
2018-02-08T00:35:31.379Z,32.1
2018-02-08T00:50:31.650Z,31
2018-02-08T01:10:31.792Z,32.1
2018-02-08T01:25:31.784Z,34.4
2018-02-08T01:40:31.765Z,29.1
2018-02-08T01:55:31.757Z,33.1
2018-02-08T02:15:31.988Z,31.8
2018-02-08T02:30:32.010Z,31.2
2018-02-08T02:45:31.944Z,28.5
2018-02-08T03:05:33.396Z,33.6
2018-02-08T03:20:33.632Z,30.3
2018-02-08T03:35:33.733Z,29.9
2018-02-08T03:50:33.533Z,30.1
2018-02-08T04:10:33.767Z,28.5
2018-02-08T04:25:33.593Z,31.3
2018-02-08T04:40:33.775Z,28.8
2018-02-08T05:00:33.606Z,29
2018-02-08T05:15:33.854Z,29.4
2018-02-08T05:30:33.862Z,29.6
2018-02-08T05:45:34.083Z,34.6
2018-02-08T06:20:34.232Z,29
2018-02-08T06:35:34.009Z,33.1
2018-02-08T07:10:34.015Z,32.2
2018-02-08T07:25:34.034Z,32.3
2018-02-08T07:40:34.266Z,33
2018-02-08T08:00:43.457Z,33.6
2018-02-08T08:15:38.487Z,34.4
2018-02-08T08:30:38.679Z,33.3
2018-02-08T08:50:38.498Z,33.5
2018-02-08T09:20:38.541Z,31.1
2018-02-08T09:35:38.619Z,30
2018-02-08T09:55:38.409Z,28.7
2018-02-08T10:10:38.631Z,31
2018-02-08T10:25:38.492Z,30.1
2018-02-08T10:45:38.494Z,28.6
2018-02-08T11:00:38.709Z,29.1
2018-02-08T11:15:38.704Z,26.7
2018-02-08T11:30:38.662Z,28.7
2018-02-08T11:50:38.525Z,29.8
2018-02-08T12:05:38.692Z,27.5
2018-02-08T12:20:38.929Z,29.1
2018-02-08T12:40:38.740Z,28.5
2018-02-08T12:55:48.656Z,27.3
2018-02-08T13:10:43.411Z,31.2
2018-02-08T13:25:43.565Z,27.9
2018-02-08T13:45:43.589Z,29.4
2018-02-08T14:00:43.573Z,30.1
2018-02-08T14:15:43.458Z,31.1
2018-02-08T14:35:43.872Z,31.7
2018-02-08T14:50:43.913Z,30.5
2018-02-08T15:05:43.912Z,28.9
2018-02-08T15:20:43.970Z,32.8
2018-02-08T15:40:43.769Z,33.6
2018-02-08T15:55:43.762Z,30.5
2018-02-08T16:10:43.926Z,31.9
2018-02-08T16:30:43.970Z,34.4
2018-02-08T16:45:43.961Z,34.1
2018-02-08T17:00:43.991Z,34.2
2018-02-08T17:15:43.982Z,34.5
2018-02-08T17:35:44.121Z,41
2018-02-08T17:50:52.168Z,47.9
2018-02-08T18:05:47.066Z,39.3
2018-02-08T18:25:47.207Z,35.4
2018-02-08T18:40:47.107Z,34.7
2018-02-08T18:55:47.093Z,37.7
2018-02-08T19:10:47.145Z,40.1
2018-02-08T19:30:47.133Z,42.9
2018-02-08T19:45:47.297Z,36.7
2018-02-08T20:00:47.328Z,37
2018-02-08T20:20:47.477Z,34.6
2018-02-08T21:25:47.370Z,38.2
2018-02-08T21:40:47.542Z,36.9
2018-02-08T21:55:47.517Z,34.1
2018-02-08T22:10:48.869Z,37.9
2018-02-08T22:30:47.562Z,40.7
2018-02-08T22:45:52.071Z,36.4
2018-02-08T23:00:52.131Z,35.1
2018-02-08T23:20:52.164Z,33.3
2018-02-08T23:35:52.278Z,35.8
2018-02-08T23:50:52.572Z,37.5
